sensor_id;sensor_type;location;lat;lon;timestamp;pressure;altitude;pressure_sealevel;temperature;humidity
39949;BME280;29070;48.102;-1.652;2023-02-18T00:03:06;102809.88;;;12.09;77.89
39949;BME280;29070;48.102;-1.652;2023-02-18T00:08:06;102809.19;;;12.07;77.88
39949;BME280;29070;48.102;-1.652;2023-02-18T00:13:07;102807.25;;;12.09;77.94
39949;BME280;29070;48.102;-1.652;2023-02-18T00:18:07;102805.34;;;12.01;77.69
39949;BME280;29070;48.102;-1.652;2023-02-18T00:23:07;102799.66;;;12.06;77.78
39949;BME280;29070;48.102;-1.652;2023-02-18T00:28:08;102800.09;;;12.01;77.56
39949;BME280;29070;48.102;-1.652;2023-02-18T00:33:08;102791.00;;;11.96;77.55
39949;BME280;29070;48.102;-1.652;2023-02-18T00:38:09;102782.28;;;11.95;77.24
39949;BME280;29070;48.102;-1.652;2023-02-18T00:43:09;102786.41;;;11.98;77.02
39949;BME280;29070;48.102;-1.652;2023-02-18T00:48:10;102786.88;;;11.93;76.85
39949;BME280;29070;48.102;-1.652;2023-02-18T00:53:10;102776.09;;;11.87;76.73
39949;BME280;29070;48.102;-1.652;2023-02-18T00:58:11;102779.41;;;11.89;76.58
39949;BME280;29070;48.102;-1.652;2023-02-18T01:03:12;102767.81;;;11.91;76.32
39949;BME280;29070;48.102;-1.652;2023-02-18T01:08:12;102775.81;;;11.90;76.31
39949;BME280;29070;48.102;-1.652;2023-02-18T01:13:14;102774.16;;;11.89;76.11
39949;BME280;29070;48.102;-1.652;2023-02-18T01:18:15;102780.69;;;11.85;75.99
39949;BME280;29070;48.102;-1.652;2023-02-18T01:23:16;102773.91;;;11.82;75.78
39949;BME280;29070;48.102;-1.652;2023-02-18T01:28:18;102773.78;;;11.83;75.62
39949;BME280;29070;48.102;-1.652;2023-02-18T01:33:20;102770.63;;;11.80;75.43
39949;BME280;29070;48.102;-1.652;2023-02-18T01:38:21;102776.22;;;11.77;75.48
39949;BME280;29070;48.102;-1.652;2023-02-18T01:43:21;102771.69;;;11.69;75.46
39949;BME280;29070;48.102;-1.652;2023-02-18T01:53:35;102767.41;;;11.68;75.45
39949;BME280;29070;48.102;-1.652;2023-02-18T01:58:37;102780.03;;;11.64;74.98
39949;BME280;29070;48.102;-1.652;2023-02-18T02:03:38;102768.69;;;11.64;75.10
39949;BME280;29070;48.102;-1.652;2023-02-18T02:08:38;102764.19;;;11.56;74.98
39949;BME280;29070;48.102;-1.652;2023-02-18T02:14:10;102759.69;;;11.49;74.89
39949;BME280;29070;48.102;-1.652;2023-02-18T02:35:31;102751.94;;;11.29;74.44
39949;BME280;29070;48.102;-1.652;2023-02-18T02:56:21;102725.88;;;11.18;73.78
39949;BME280;29070;48.102;-1.652;2023-02-18T03:01:34;102721.28;;;11.20;73.87
39949;BME280;29070;48.102;-1.652;2023-02-18T03:06:56;102721.59;;;11.17;73.76
39949;BME280;29070;48.102;-1.652;2023-02-18T03:17:30;102716.75;;;11.12;73.79
39949;BME280;29070;48.102;-1.652;2023-02-18T03:22:40;102710.69;;;11.12;73.80
39949;BME280;29070;48.102;-1.652;2023-02-18T03:27:55;102706.44;;;11.11;73.55
39949;BME280;29070;48.102;-1.652;2023-02-18T03:32:59;102707.78;;;11.15;73.67
39949;BME280;29070;48.102;-1.652;2023-02-18T03:38:08;102705.00;;;11.16;73.42
39949;BME280;29070;48.102;-1.652;2023-02-18T03:43:11;102701.38;;;11.17;73.73
39949;BME280;29070;48.102;-1.652;2023-02-18T03:48:12;102693.97;;;11.13;73.62
39949;BME280;29070;48.102;-1.652;2023-02-18T03:53:12;102688.38;;;11.16;73.73
39949;BME280;29070;48.102;-1.652;2023-02-18T03:58:12;102688.22;;;11.17;73.60
39949;BME280;29070;48.102;-1.652;2023-02-18T04:03:13;102694.47;;;11.16;73.80
39949;BME280;29070;48.102;-1.652;2023-02-18T04:08:13;102700.03;;;11.13;73.76
39949;BME280;29070;48.102;-1.652;2023-02-18T04:13:14;102690.66;;;11.11;73.65
39949;BME280;29070;48.102;-1.652;2023-02-18T04:18:14;102693.44;;;11.09;73.74
39949;BME280;29070;48.102;-1.652;2023-02-18T04:23:14;102694.25;;;11.10;73.68
39949;BME280;29070;48.102;-1.652;2023-02-18T04:28:15;102692.59;;;11.09;73.66
39949;BME280;29070;48.102;-1.652;2023-02-18T04:33:16;102688.47;;;11.06;73.46
39949;BME280;29070;48.102;-1.652;2023-02-18T04:38:16;102700.06;;;11.03;73.93
39949;BME280;29070;48.102;-1.652;2023-02-18T04:43:16;102696.09;;;10.99;73.74
39949;BME280;29070;48.102;-1.652;2023-02-18T04:48:17;102690.72;;;11.01;73.76
39949;BME280;29070;48.102;-1.652;2023-02-18T04:53:17;102688.50;;;10.96;73.76
39949;BME280;29070;48.102;-1.652;2023-02-18T04:58:18;102692.94;;;10.96;73.59
39949;BME280;29070;48.102;-1.652;2023-02-18T05:03:20;102691.47;;;10.93;74.12
39949;BME280;29070;48.102;-1.652;2023-02-18T05:08:21;102690.72;;;11.01;74.23
39949;BME280;29070;48.102;-1.652;2023-02-18T05:13:21;102696.25;;;10.98;74.08
39949;BME280;29070;48.102;-1.652;2023-02-18T05:18:22;102689.66;;;10.94;74.38
39949;BME280;29070;48.102;-1.652;2023-02-18T05:23:22;102692.72;;;10.89;74.41
39949;BME280;29070;48.102;-1.652;2023-02-18T05:28:24;102697.69;;;10.92;74.72
39949;BME280;29070;48.102;-1.652;2023-02-18T05:33:25;102685.81;;;10.88;74.90
39949;BME280;29070;48.102;-1.652;2023-02-18T05:38:25;102688.59;;;10.86;74.83
39949;BME280;29070;48.102;-1.652;2023-02-18T05:43:26;102692.19;;;10.85;74.97
39949;BME280;29070;48.102;-1.652;2023-02-18T05:48:26;102702.16;;;10.82;75.10
39949;BME280;29070;48.102;-1.652;2023-02-18T05:53:26;102695.84;;;10.75;75.33
39949;BME280;29070;48.102;-1.652;2023-02-18T05:58:27;102691.44;;;10.75;75.34
39949;BME280;29070;48.102;-1.652;2023-02-18T06:03:27;102689.75;;;10.74;75.37
39949;BME280;29070;48.102;-1.652;2023-02-18T06:08:27;102692.25;;;10.76;75.51
39949;BME280;29070;48.102;-1.652;2023-02-18T06:13:28;102689.22;;;10.71;75.60
39949;BME280;29070;48.102;-1.652;2023-02-18T06:18:28;102697.50;;;10.76;75.88
39949;BME280;29070;48.102;-1.652;2023-02-18T06:23:29;102696.16;;;10.72;75.93
39949;BME280;29070;48.102;-1.652;2023-02-18T06:28:29;102688.94;;;10.74;75.89
39949;BME280;29070;48.102;-1.652;2023-02-18T06:33:30;102689.75;;;10.74;75.97
39949;BME280;29070;48.102;-1.652;2023-02-18T06:38:30;102691.72;;;10.72;76.18
39949;BME280;29070;48.102;-1.652;2023-02-18T06:43:31;102682.72;;;10.75;76.08
39949;BME280;29070;48.102;-1.652;2023-02-18T06:48:31;102689.75;;;10.74;76.24
39949;BME280;29070;48.102;-1.652;2023-02-18T06:53:32;102677.91;;;10.70;76.25
39949;BME280;29070;48.102;-1.652;2023-02-18T06:58:32;102679.72;;;10.70;76.37
39949;BME280;29070;48.102;-1.652;2023-02-18T07:03:33;102675.00;;;10.73;76.35
39949;BME280;29070;48.102;-1.652;2023-02-18T07:08:33;102678.72;;;10.71;76.21
39949;BME280;29070;48.102;-1.652;2023-02-18T07:13:36;102676.78;;;10.73;76.41
39949;BME280;29070;48.102;-1.652;2023-02-18T07:18:37;102675.97;;;10.72;76.61
39949;BME280;29070;48.102;-1.652;2023-02-18T07:23:37;102683.97;;;10.71;76.34
39949;BME280;29070;48.102;-1.652;2023-02-18T07:28:38;102697.13;;;10.71;76.33
39949;BME280;29070;48.102;-1.652;2023-02-18T07:33:38;102702.81;;;10.66;76.32
39949;BME280;29070;48.102;-1.652;2023-02-18T07:38:39;102707.38;;;10.64;76.13
39949;BME280;29070;48.102;-1.652;2023-02-18T07:43:39;102716.09;;;10.64;76.35
39949;BME280;29070;48.102;-1.652;2023-02-18T07:48:39;102714.97;;;10.67;76.36
39949;BME280;29070;48.102;-1.652;2023-02-18T07:53:40;102724.78;;;10.65;76.36
39949;BME280;29070;48.102;-1.652;2023-02-18T07:58:41;102730.31;;;10.62;76.64
39949;BME280;29070;48.102;-1.652;2023-02-18T08:03:41;102732.97;;;10.62;76.81
39949;BME280;29070;48.102;-1.652;2023-02-18T08:08:42;102742.91;;;10.68;76.66
39949;BME280;29070;48.102;-1.652;2023-02-18T08:13:42;102741.22;;;10.67;76.79
39949;BME280;29070;48.102;-1.652;2023-02-18T08:18:43;102747.00;;;10.71;76.63
39949;BME280;29070;48.102;-1.652;2023-02-18T08:23:44;102745.06;;;10.73;76.68
39949;BME280;29070;48.102;-1.652;2023-02-18T08:28:46;102748.09;;;10.78;76.67
39949;BME280;29070;48.102;-1.652;2023-02-18T08:33:47;102749.75;;;10.79;76.69
39949;BME280;29070;48.102;-1.652;2023-02-18T08:38:48;102754.69;;;10.82;76.63
39949;BME280;29070;48.102;-1.652;2023-02-18T08:43:48;102752.72;;;10.94;76.74
39949;BME280;29070;48.102;-1.652;2023-02-18T08:48:49;102753.63;;;11.02;76.73
39949;BME280;29070;48.102;-1.652;2023-02-18T08:53:49;102752.34;;;11.06;76.58
39949;BME280;29070;48.102;-1.652;2023-02-18T08:58:50;102760.09;;;11.08;76.60
39949;BME280;29070;48.102;-1.652;2023-02-18T09:03:50;102762.56;;;11.10;76.54
39949;BME280;29070;48.102;-1.652;2023-02-18T09:08:50;102758.28;;;11.09;76.47
39949;BME280;29070;48.102;-1.652;2023-02-18T09:13:51;102760.03;;;11.18;76.48
39949;BME280;29070;48.102;-1.652;2023-02-18T09:18:51;102755.59;;;11.18;76.28
39949;BME280;29070;48.102;-1.652;2023-02-18T09:23:52;102759.72;;;11.21;76.34
39949;BME280;29070;48.102;-1.652;2023-02-18T09:28:54;102763.19;;;11.21;76.18
39949;BME280;29070;48.102;-1.652;2023-02-18T09:34:00;102763.72;;;11.25;76.10
39949;BME280;29070;48.102;-1.652;2023-02-18T09:39:01;102765.91;;;11.30;76.01
39949;BME280;29070;48.102;-1.652;2023-02-18T09:49:17;102750.41;;;11.44;75.85
39949;BME280;29070;48.102;-1.652;2023-02-18T09:54:19;102758.53;;;11.51;75.76
39949;BME280;29070;48.102;-1.652;2023-02-18T09:59:21;102756.81;;;11.60;75.73
39949;BME280;29070;48.102;-1.652;2023-02-18T10:04:28;102757.84;;;11.67;75.57
39949;BME280;29070;48.102;-1.652;2023-02-18T10:09:35;102757.31;;;11.81;75.46
39949;BME280;29070;48.102;-1.652;2023-02-18T10:14:37;102752.53;;;11.95;75.45
39949;BME280;29070;48.102;-1.652;2023-02-18T10:19:38;102762.72;;;11.98;75.03
39949;BME280;29070;48.102;-1.652;2023-02-18T10:24:47;102770.56;;;11.90;74.71
39949;BME280;29070;48.102;-1.652;2023-02-18T10:29:49;102778.59;;;11.88;74.71
39949;BME280;29070;48.102;-1.652;2023-02-18T10:35:06;102783.47;;;12.01;74.51
39949;BME280;29070;48.102;-1.652;2023-02-18T10:50:42;102775.91;;;12.24;73.78
39949;BME280;29070;48.102;-1.652;2023-02-18T10:55:45;102765.16;;;12.17;73.86
39949;BME280;29070;48.102;-1.652;2023-02-18T11:00:46;102757.41;;;12.16;73.52
39949;BME280;29070;48.102;-1.652;2023-02-18T11:05:50;102746.72;;;12.17;73.27
39949;BME280;29070;48.102;-1.652;2023-02-18T11:10:52;102746.94;;;12.24;73.19
39949;BME280;29070;48.102;-1.652;2023-02-18T11:16:00;102752.41;;;12.31;73.12
39949;BME280;29070;48.102;-1.652;2023-02-18T11:21:04;102748.84;;;12.40;72.93
39949;BME280;29070;48.102;-1.652;2023-02-18T11:26:06;102756.63;;;12.50;72.73
39949;BME280;29070;48.102;-1.652;2023-02-18T11:31:16;102755.00;;;12.57;72.23
39949;BME280;29070;48.102;-1.652;2023-02-18T11:36:33;102762.09;;;12.56;71.93
39949;BME280;29070;48.102;-1.652;2023-02-18T11:41:42;102752.88;;;12.61;71.83
39949;BME280;29070;48.102;-1.652;2023-02-18T11:57:19;102748.31;;;12.71;71.36
39949;BME280;29070;48.102;-1.652;2023-02-18T12:02:36;102749.31;;;12.70;70.04
39949;BME280;29070;48.102;-1.652;2023-02-18T12:07:45;102739.09;;;12.75;70.24
39949;BME280;29070;48.102;-1.652;2023-02-18T12:33:50;102713.81;;;12.99;69.46
39949;BME280;29070;48.102;-1.652;2023-02-18T12:39:19;102704.25;;;12.97;68.76
39949;BME280;29070;48.102;-1.652;2023-02-18T12:44:43;102700.78;;;12.81;69.05
39949;BME280;29070;48.102;-1.652;2023-02-18T13:06:24;102675.25;;;12.97;67.88
39949;BME280;29070;48.102;-1.652;2023-02-18T13:11:49;102655.50;;;12.93;67.51
39949;BME280;29070;48.102;-1.652;2023-02-18T13:16:54;102655.16;;;12.96;67.75
39949;BME280;29070;48.102;-1.652;2023-02-18T13:21:59;102654.34;;;13.04;68.39
39949;BME280;29070;48.102;-1.652;2023-02-18T13:27:18;102654.00;;;13.07;67.78
39949;BME280;29070;48.102;-1.652;2023-02-18T13:32:28;102649.06;;;13.04;68.08
39949;BME280;29070;48.102;-1.652;2023-02-18T13:38:11;102642.63;;;13.07;67.45
39949;BME280;29070;48.102;-1.652;2023-02-18T13:48:25;102632.59;;;13.10;67.66
39949;BME280;29070;48.102;-1.652;2023-02-18T13:53:28;102630.59;;;13.12;67.62
39949;BME280;29070;48.102;-1.652;2023-02-18T13:58:36;102621.72;;;13.13;67.56
39949;BME280;29070;48.102;-1.652;2023-02-18T14:08:41;102613.66;;;13.15;67.55
39949;BME280;29070;48.102;-1.652;2023-02-18T14:14:13;102601.13;;;13.17;66.60
39949;BME280;29070;48.102;-1.652;2023-02-18T14:19:28;102592.38;;;13.25;66.89
39949;BME280;29070;48.102;-1.652;2023-02-18T14:24:48;102594.03;;;13.18;66.15
39949;BME280;29070;48.102;-1.652;2023-02-18T14:29:50;102587.59;;;13.12;66.81
39949;BME280;29070;48.102;-1.652;2023-02-18T14:40:38;102585.63;;;13.14;66.45
39949;BME280;29070;48.102;-1.652;2023-02-18T14:46:17;102576.41;;;13.18;66.70
39949;BME280;29070;48.102;-1.652;2023-02-18T14:51:19;102569.66;;;13.15;65.76
39949;BME280;29070;48.102;-1.652;2023-02-18T14:56:21;102571.97;;;13.19;66.74
39949;BME280;29070;48.102;-1.652;2023-02-18T15:01:26;102570.47;;;13.16;66.67
39949;BME280;29070;48.102;-1.652;2023-02-18T15:06:28;102570.47;;;13.16;66.41
39949;BME280;29070;48.102;-1.652;2023-02-18T15:11:38;102558.28;;;13.15;66.52
39949;BME280;29070;48.102;-1.652;2023-02-18T15:16:39;102561.72;;;13.15;66.71
39949;BME280;29070;48.102;-1.652;2023-02-18T15:21:43;102554.31;;;13.11;66.64
39949;BME280;29070;48.102;-1.652;2023-02-18T15:26:47;102545.59;;;13.10;66.63
39949;BME280;29070;48.102;-1.652;2023-02-18T15:31:52;102564.72;;;13.04;66.42
39949;BME280;29070;48.102;-1.652;2023-02-18T15:36:53;102553.16;;;13.05;66.60
39949;BME280;29070;48.102;-1.652;2023-02-18T15:41:56;102542.78;;;13.04;66.42
39949;BME280;29070;48.102;-1.652;2023-02-18T15:47:04;102532.09;;;12.97;66.28
39949;BME280;29070;48.102;-1.652;2023-02-18T15:52:06;102539.00;;;12.98;66.61
39949;BME280;29070;48.102;-1.652;2023-02-18T15:57:12;102531.94;;;12.99;66.59
39949;BME280;29070;48.102;-1.652;2023-02-18T16:02:17;102534.38;;;13.00;66.70
39949;BME280;29070;48.102;-1.652;2023-02-18T16:07:21;102527.66;;;13.06;66.86
39949;BME280;29070;48.102;-1.652;2023-02-18T16:12:30;102527.31;;;13.01;66.80
39949;BME280;29070;48.102;-1.652;2023-02-18T16:17:31;102526.00;;;12.96;66.68
39949;BME280;29070;48.102;-1.652;2023-02-18T16:22:34;102533.25;;;12.94;66.90
39949;BME280;29070;48.102;-1.652;2023-02-18T16:27:51;102533.44;;;12.85;66.75
39949;BME280;29070;48.102;-1.652;2023-02-18T16:32:52;102534.72;;;12.89;66.68
39949;BME280;29070;48.102;-1.652;2023-02-18T16:37:54;102541.66;;;12.90;66.83
39949;BME280;29070;48.102;-1.652;2023-02-18T16:42:59;102530.94;;;12.83;66.94
39949;BME280;29070;48.102;-1.652;2023-02-18T16:48:00;102535.91;;;12.86;67.00
39949;BME280;29070;48.102;-1.652;2023-02-18T16:53:01;102531.28;;;12.88;67.12
39949;BME280;29070;48.102;-1.652;2023-02-18T16:58:01;102533.59;;;12.83;67.01
39949;BME280;29070;48.102;-1.652;2023-02-18T17:03:02;102528.00;;;12.86;67.03
39949;BME280;29070;48.102;-1.652;2023-02-18T17:13:20;102533.59;;;12.83;67.38
39949;BME280;29070;48.102;-1.652;2023-02-18T17:18:21;102526.50;;;12.84;67.48
39949;BME280;29070;48.102;-1.652;2023-02-18T17:23:23;102528.16;;;12.85;67.25
39949;BME280;29070;48.102;-1.652;2023-02-18T17:28:23;102535.22;;;12.76;67.34
39949;BME280;29070;48.102;-1.652;2023-02-18T17:33:24;102537.72;;;12.77;67.40
39949;BME280;29070;48.102;-1.652;2023-02-18T17:38:25;102542.47;;;12.74;67.34
39949;BME280;29070;48.102;-1.652;2023-02-18T17:43:25;102548.06;;;12.71;67.59
39949;BME280;29070;48.102;-1.652;2023-02-18T17:48:26;102546.09;;;12.73;67.59
39949;BME280;29070;48.102;-1.652;2023-02-18T17:53:27;102543.13;;;12.68;67.60
39949;BME280;29070;48.102;-1.652;2023-02-18T17:58:27;102555.47;;;12.67;67.66
39949;BME280;29070;48.102;-1.652;2023-02-18T18:03:28;102562.06;;;12.63;67.87
39949;BME280;29070;48.102;-1.652;2023-02-18T18:08:29;102559.25;;;12.56;67.85
39949;BME280;29070;48.102;-1.652;2023-02-18T18:13:30;102557.78;;;12.54;68.15
39949;BME280;29070;48.102;-1.652;2023-02-18T18:18:31;102574.41;;;12.54;68.07
39949;BME280;29070;48.102;-1.652;2023-02-18T18:23:31;102578.66;;;12.55;68.07
39949;BME280;29070;48.102;-1.652;2023-02-18T18:28:33;102574.41;;;12.54;68.13
39949;BME280;29070;48.102;-1.652;2023-02-18T18:33:33;102581.66;;;12.52;68.25
39949;BME280;29070;48.102;-1.652;2023-02-18T18:38:34;102580.47;;;12.55;68.49
39949;BME280;29070;48.102;-1.652;2023-02-18T18:43:34;102583.44;;;12.52;68.37
39949;BME280;29070;48.102;-1.652;2023-02-18T18:48:36;102585.56;;;12.48;68.49
39949;BME280;29070;48.102;-1.652;2023-02-18T18:53:37;102589.38;;;12.46;68.59
39949;BME280;29070;48.102;-1.652;2023-02-18T18:58:37;102584.25;;;12.44;68.75
39949;BME280;29070;48.102;-1.652;2023-02-18T19:03:38;102582.63;;;12.43;68.84
39949;BME280;29070;48.102;-1.652;2023-02-18T19:08:40;102586.69;;;12.37;68.87
39949;BME280;29070;48.102;-1.652;2023-02-18T19:13:41;102584.06;;;12.37;69.00
39949;BME280;29070;48.102;-1.652;2023-02-18T19:18:42;102591.16;;;12.37;69.08
39949;BME280;29070;48.102;-1.652;2023-02-18T19:23:42;102595.75;;;12.35;69.08
39949;BME280;29070;48.102;-1.652;2023-02-18T19:28:44;102585.88;;;12.37;69.37
39949;BME280;29070;48.102;-1.652;2023-02-18T19:33:45;102589.31;;;12.37;69.29
39949;BME280;29070;48.102;-1.652;2023-02-18T19:38:46;102582.94;;;12.40;69.28
39949;BME280;29070;48.102;-1.652;2023-02-18T19:43:46;102584.91;;;12.38;69.45
39949;BME280;29070;48.102;-1.652;2023-02-18T19:48:49;102585.22;;;12.35;69.50
39949;BME280;29070;48.102;-1.652;2023-02-18T19:53:51;102585.22;;;12.35;69.45
39949;BME280;29070;48.102;-1.652;2023-02-18T19:58:54;102585.53;;;12.32;69.59
39949;BME280;29070;48.102;-1.652;2023-02-18T20:03:55;102580.06;;;12.17;69.80
39949;BME280;29070;48.102;-1.652;2023-02-18T20:08:55;102582.22;;;12.22;69.80
39949;BME280;29070;48.102;-1.652;2023-02-18T20:13:56;102586.34;;;12.24;70.08
39949;BME280;29070;48.102;-1.652;2023-02-18T20:18:56;102594.41;;;12.23;70.25
39949;BME280;29070;48.102;-1.652;2023-02-18T20:23:57;102591.44;;;12.26;70.15
39949;BME280;29070;48.102;-1.652;2023-02-18T20:28:57;102591.75;;;12.23;70.22
39949;BME280;29070;48.102;-1.652;2023-02-18T20:33:58;102597.69;;;12.25;70.24
39949;BME280;29070;48.102;-1.652;2023-02-18T20:38:58;102581.88;;;12.16;70.45
39949;BME280;29070;48.102;-1.652;2023-02-18T20:43:59;102582.03;;;12.15;70.81
39949;BME280;29070;48.102;-1.652;2023-02-18T20:49:00;102579.72;;;12.12;70.57
39949;BME280;29070;48.102;-1.652;2023-02-18T20:54:07;102586.44;;;12.06;70.84
39949;BME280;29070;48.102;-1.652;2023-02-18T20:59:11;102588.06;;;12.07;70.98
39949;BME280;29070;48.102;-1.652;2023-02-18T21:04:17;102590.38;;;12.02;70.88
39949;BME280;29070;48.102;-1.652;2023-02-18T21:09:18;102601.72;;;12.02;70.96
39949;BME280;29070;48.102;-1.652;2023-02-18T21:14:20;102598.91;;;11.96;71.00
39949;BME280;29070;48.102;-1.652;2023-02-18T21:19:20;102604.09;;;11.88;71.17
39949;BME280;29070;48.102;-1.652;2023-02-18T21:24:21;102609.97;;;11.81;71.67
39949;BME280;29070;48.102;-1.652;2023-02-18T21:29:21;102613.59;;;11.80;71.78
39949;BME280;29070;48.102;-1.652;2023-02-18T21:34:22;102619.53;;;11.82;71.95
39949;BME280;29070;48.102;-1.652;2023-02-18T21:39:25;102616.06;;;11.82;71.90
39949;BME280;29070;48.102;-1.652;2023-02-18T21:44:25;102613.59;;;11.80;72.21
39949;BME280;29070;48.102;-1.652;2023-02-18T21:49:25;102615.03;;;11.75;72.16
39949;BME280;29070;48.102;-1.652;2023-02-18T21:54:31;102604.69;;;11.73;72.36
39949;BME280;29070;48.102;-1.652;2023-02-18T21:59:32;102608.44;;;11.71;72.61
39949;BME280;29070;48.102;-1.652;2023-02-18T22:04:34;102611.06;;;11.71;72.69
39949;BME280;29070;48.102;-1.652;2023-02-18T22:09:35;102608.56;;;11.61;72.67
39949;BME280;29070;48.102;-1.652;2023-02-18T22:14:37;102605.25;;;11.59;72.89
39949;BME280;29070;48.102;-1.652;2023-02-18T22:19:38;102597.53;;;11.57;73.04
39949;BME280;29070;48.102;-1.652;2023-02-18T22:24:38;102601.91;;;11.49;73.14
39949;BME280;29070;48.102;-1.652;2023-02-18T22:29:39;102585.47;;;11.47;73.25
39949;BME280;29070;48.102;-1.652;2023-02-18T22:34:39;102589.06;;;11.45;73.42
39949;BME280;29070;48.102;-1.652;2023-02-18T22:39:40;102601.84;;;11.40;73.65
39949;BME280;29070;48.102;-1.652;2023-02-18T22:44:40;102601.84;;;11.40;73.87
39949;BME280;29070;48.102;-1.652;2023-02-18T22:49:40;102598.25;;;11.41;73.93
39949;BME280;29070;48.102;-1.652;2023-02-18T22:54:41;102620.91;;;11.42;74.10
39949;BME280;29070;48.102;-1.652;2023-02-18T22:59:41;102619.94;;;11.43;73.96
39949;BME280;29070;48.102;-1.652;2023-02-18T23:04:42;102620.25;;;11.40;74.05
39949;BME280;29070;48.102;-1.652;2023-02-18T23:09:42;102628.59;;;11.36;74.15
39949;BME280;29070;48.102;-1.652;2023-02-18T23:14:42;102639.28;;;11.34;74.42
39949;BME280;29070;48.102;-1.652;2023-02-18T23:24:45;102641.22;;;11.32;74.71
39949;BME280;29070;48.102;-1.652;2023-02-18T23:29:45;102645.97;;;11.29;75.05
39949;BME280;29070;48.102;-1.652;2023-02-18T23:34:48;102646.78;;;11.29;74.91
39949;BME280;29070;48.102;-1.652;2023-02-18T23:39:49;102650.09;;;11.31;75.02
39949;BME280;29070;48.102;-1.652;2023-02-18T23:44:49;102646.63;;;11.31;75.20
39949;BME280;29070;48.102;-1.652;2023-02-18T23:49:52;102655.34;;;11.31;75.19
39949;BME280;29070;48.102;-1.652;2023-02-18T23:54:53;102645.78;;;11.30;75.13
39949;BME280;29070;48.102;-1.652;2023-02-18T23:59:53;102652.34;;;11.26;75.36
